Arnold, Missouri
Current Conditions -  °F | °C
As of 5:53 AM on Wednesday 28 Jan 2015 (Local Time) from KCPS Reporting Station
Haze Haze  
Wind Chill: 21°   Ceiling: Unl
Heat Index: 29°   Visibility: 6mi
Dew Point: 26°   Wind: 8mph
Humidity: 89%   Direction: 140°SE
Pressure: 30.25"   Gusts: NA
Location:  38.42°N, 90.37°W
Report Text: KCPS 281153Z AUTO 14007KT 6SM BR FEW011 M02/M03 A3025 RMK AO2 SLP248 I6000 T10171033 11011 21033 55001 TSNO
Loading
Personal Weather Stations






























Interactive Weather Map New forecast layout! Learn more

10-Day Weather Forecast

Advertisements
Track Severe Weather on mobile